Time;durP1;ratioP1;P1;durP2;ratioP2;P2;SDS_P1;SDS_P2;PMS_P1;PMS_P2;Temp;Humidity;BMP_temperature;BMP_pressure;BME280_temperature;BME280_humidity;BME280_pressure;Samples;Min_cycle;Max_cycle;Signal;HPM_P1;HPM_P2
2022/07/02 00:01:36;;;;;;;16.48;14.23;;;22.80;95.60;;;;;;6144729;23;20195;-87
2022/07/02 00:04:06;;;;;;;18.65;15.30;;;22.80;95.60;;;;;;6145109;23;20632;-88
2022/07/02 00:06:40;;;;;;;17.02;14.80;;;22.80;95.60;;;;;;6120786;23;20190;-87
2022/07/02 00:09:16;;;;;;;16.85;14.25;;;22.80;95.60;;;;;;6121053;23;20210;-87
2022/07/02 00:11:43;;;;;;;17.60;14.25;;;22.80;95.60;;;;;;6121265;23;20209;-87
2022/07/02 00:14:19;;;;;;;18.67;15.73;;;22.80;95.70;;;;;;6120575;23;20226;-87
2022/07/02 00:16:48;;;;;;;17.20;14.57;;;22.70;95.80;;;;;;6121675;23;20250;-88
2022/07/02 00:19:14;;;;;;;18.85;15.82;;;22.80;95.90;;;;;;6144514;23;20152;-87
2022/07/02 00:21:40;;;;;;;19.05;15.38;;;22.80;95.90;;;;;;6144426;23;20214;-87
2022/07/02 00:24:10;;;;;;;19.08;15.63;;;22.80;95.90;;;;;;6121405;23;20288;-87
2022/07/02 00:26:41;;;;;;;18.40;15.38;;;22.80;95.80;;;;;;6120880;23;20183;-88
2022/07/02 00:29:27;;;;;;;18.60;15.80;;;22.80;96.00;;;;;;6146013;23;20207;-88
2022/07/02 00:31:55;;;;;;;17.90;14.40;;;22.70;96.00;;;;;;6124354;23;20155;-87
2022/07/02 00:34:21;;;;;;;20.35;15.55;;;22.80;95.90;;;;;;6170854;23;20144;-87
2022/07/02 00:36:50;;;;;;;18.42;15.30;;;22.70;96.00;;;;;;6120856;23;20153;-87
2022/07/02 00:39:19;;;;;;;18.58;15.38;;;22.80;96.30;;;;;;6122137;23;20172;-87
2022/07/02 00:41:48;;;;;;;18.98;15.60;;;22.70;95.90;;;;;;6121277;23;20150;-87
2022/07/02 00:44:15;;;;;;;16.73;14.75;;;22.70;95.90;;;;;;6144506;23;20335;-88
2022/07/02 00:46:40;;;;;;;18.65;15.18;;;22.70;95.80;;;;;;6120134;23;20213;-87
2022/07/02 00:49:09;;;;;;;18.13;14.80;;;22.70;95.80;;;;;;6119944;23;20139;-87
2022/07/02 00:51:39;;;;;;;17.30;14.98;;;22.80;95.90;;;;;;6080497;23;20482;-87
2022/07/02 00:54:05;;;;;;;17.98;14.60;;;22.70;95.90;;;;;;6047896;23;20154;-88
2022/07/02 00:56:33;;;;;;;18.35;14.85;;;22.70;95.90;;;;;;6000603;23;20158;-87
2022/07/02 00:59:05;;;;;;;16.45;14.48;;;22.70;95.90;;;;;;6053970;23;20158;-87
2022/07/02 01:01:36;;;;;;;17.88;15.23;;;22.70;95.90;;;;;;6006677;23;20240;-87
2022/07/02 01:04:02;;;;;;;20.02;16.08;;;22.70;95.80;;;;;;6006588;23;20170;-87
2022/07/02 01:06:35;;;;;;;19.25;14.85;;;22.70;95.90;;;;;;6006843;23;20185;-87
2022/07/02 01:11:51;;;;;;;18.15;14.63;;;22.70;95.80;;;;;;5948063;24;20156;-88
2022/07/02 01:14:21;;;;;;;17.50;14.77;;;22.70;95.80;;;;;;5922172;24;20179;-87
2022/07/02 01:16:47;;;;;;;18.77;15.48;;;22.70;95.70;;;;;;5950880;24;20156;-87
2022/07/02 01:19:23;;;;;;;17.52;14.85;;;22.70;95.70;;;;;;5864568;24;20167;-87
2022/07/02 01:22:21;;;;;;;18.65;15.48;;;22.70;95.80;;;;;;5868848;24;20161;-87
2022/07/02 01:24:52;;;;;;;18.75;15.77;;;22.70;95.70;;;;;;5899958;24;20161;-87
2022/07/02 01:27:21;;;;;;;17.63;15.25;;;22.70;95.70;;;;;;5945843;24;20188;-88
2022/07/02 01:29:52;;;;;;;18.70;15.85;;;22.70;95.80;;;;;;5921129;24;20188;-87
2022/07/02 01:32:26;;;;;;;18.05;15.40;;;22.70;95.80;;;;;;5966934;24;20266;-87
2022/07/02 01:35:01;;;;;;;18.33;15.52;;;22.70;95.80;;;;;;5946157;24;20177;-87
2022/07/02 01:37:36;;;;;;;20.70;15.88;;;22.70;95.90;;;;;;5941637;24;20222;-87
2022/07/02 01:40:02;;;;;;;18.67;15.25;;;22.70;95.90;;;;;;5944524;24;20191;-87
2022/07/02 01:42:31;;;;;;;17.40;14.75;;;22.70;95.80;;;;;;5944373;24;20167;-87
2022/07/02 01:44:59;;;;;;;18.92;15.95;;;22.70;95.70;;;;;;5899870;24;20234;-88
2022/07/02 01:47:27;;;;;;;19.00;15.93;;;22.80;95.70;;;;;;5926500;24;20297;-88
2022/07/02 01:49:55;;;;;;;18.70;15.20;;;22.70;95.50;;;;;;5981426;23;20648;-87
2022/07/02 01:52:26;;;;;;;17.67;14.68;;;22.70;95.70;;;;;;6000670;23;20159;-88
2022/07/02 01:54:55;;;;;;;17.90;15.43;;;22.70;95.50;;;;;;5978355;23;20147;-87
2022/07/02 01:57:33;;;;;;;17.70;15.13;;;22.70;95.60;;;;;;6004321;23;20217;-87
2022/07/02 01:59:59;;;;;;;19.13;15.38;;;22.70;95.70;;;;;;6027590;23;20222;-87
2022/07/02 02:02:30;;;;;;;18.42;15.77;;;22.70;95.70;;;;;;6004829;23;20225;-87
2022/07/02 02:05:01;;;;;;;17.83;14.77;;;22.70;95.70;;;;;;6028724;23;20149;-88
2022/07/02 02:07:28;;;;;;;18.45;15.05;;;22.70;95.60;;;;;;6029118;23;20232;-87
2022/07/02 02:09:56;;;;;;;18.20;15.20;;;22.70;95.70;;;;;;5999679;23;20155;-87
2022/07/02 02:12:22;;;;;;;18.05;15.02;;;22.70;95.70;;;;;;5990473;23;20484;-87
2022/07/02 02:14:48;;;;;;;17.30;14.82;;;22.70;95.60;;;;;;5995430;24;20156;-87
2022/07/02 02:17:17;;;;;;;19.38;15.27;;;22.70;95.70;;;;;;5972364;24;20184;-87
2022/07/02 02:19:54;;;;;;;18.13;15.05;;;22.70;95.70;;;;;;5943962;24;20166;-87
2022/07/02 02:22:33;;;;;;;17.75;15.13;;;22.60;95.80;;;;;;5943776;24;20478;-87
2022/07/02 02:25:05;;;;;;;17.38;15.07;;;22.60;96.10;;;;;;5966711;24;20216;-87
2022/07/02 02:27:35;;;;;;;18.38;15.55;;;22.60;95.70;;;;;;5920610;24;20244;-87
2022/07/02 02:30:04;;;;;;;17.58;14.77;;;22.60;95.70;;;;;;5922477;24;20156;-87
2022/07/02 02:32:38;;;;;;;17.73;14.82;;;22.60;95.50;;;;;;5919968;24;20600;-88
2022/07/02 02:35:09;;;;;;;17.58;14.88;;;22.60;95.80;;;;;;5921543;24;20187;-87
2022/07/02 02:37:35;;;;;;;18.13;15.48;;;22.60;95.80;;;;;;5942691;24;20184;-88
2022/07/02 02:40:00;;;;;;;18.40;14.50;;;22.60;95.80;;;;;;5921111;24;20167;-88
2022/07/02 02:42:29;;;;;;;18.15;14.70;;;22.60;95.60;;;;;;5888885;24;20161;-88
2022/07/02 02:44:56;;;;;;;17.73;15.32;;;22.60;95.60;;;;;;5919519;24;20160;-87
2022/07/02 02:47:26;;;;;;;18.33;15.48;;;22.60;95.60;;;;;;5958583;24;20190;-87
2022/07/02 02:49:52;;;;;;;17.77;14.95;;;22.60;95.60;;;;;;5980956;23;20594;-87
2022/07/02 02:52:19;;;;;;;17.92;15.32;;;22.60;95.80;;;;;;6027701;23;20290;-87
2022/07/02 02:54:46;;;;;;;17.90;14.90;;;22.60;95.60;;;;;;6004479;23;20163;-87
2022/07/02 02:57:15;;;;;;;19.13;15.60;;;22.60;95.70;;;;;;6010470;23;20201;-87
2022/07/02 02:59:43;;;;;;;18.13;15.38;;;22.70;95.60;;;;;;6000472;23;20159;-87
2022/07/02 03:02:09;;;;;;;17.45;15.00;;;22.60;95.70;;;;;;5999983;23;20244;-86
2022/07/02 03:04:38;;;;;;;17.20;14.55;;;22.60;95.50;;;;;;6000906;23;20182;-87
2022/07/02 03:07:08;;;;;;;18.27;14.82;;;22.70;95.30;;;;;;6001368;23;20177;-87
2022/07/02 03:09:48;;;;;;;17.67;15.23;;;22.60;95.50;;;;;;5954126;23;20237;-87
2022/07/02 03:12:16;;;;;;;18.85;15.88;;;22.60;95.40;;;;;;5977759;23;20154;-89
2022/07/02 03:14:42;;;;;;;16.70;14.25;;;22.60;95.50;;;;;;5977641;23;20154;-86
2022/07/02 03:17:23;;;;;;;17.88;14.70;;;22.60;95.40;;;;;;6000375;23;20214;-86
2022/07/02 03:19:51;;;;;;;17.60;15.13;;;22.60;95.40;;;;;;6029735;23;20489;-87
2022/07/02 03:22:22;;;;;;;18.20;14.85;;;22.60;95.50;;;;;;6034903;23;20157;-87
2022/07/02 03:24:51;;;;;;;17.50;14.77;;;22.60;95.50;;;;;;6033194;23;20182;-87
2022/07/02 03:27:19;;;;;;;17.92;15.45;;;22.60;95.50;;;;;;6034637;23;20204;-86
2022/07/02 03:29:46;;;;;;;17.30;14.50;;;22.60;95.50;;;;;;6033134;23;20154;-88
2022/07/02 03:32:16;;;;;;;17.80;15.18;;;22.60;95.40;;;;;;6032530;23;20169;-87
2022/07/02 03:34:43;;;;;;;18.23;15.23;;;22.60;95.50;;;;;;5998268;23;20155;-87
2022/07/02 03:37:10;;;;;;;18.10;15.00;;;22.60;95.50;;;;;;6003776;23;20161;-87
2022/07/02 03:39:40;;;;;;;18.95;15.73;;;22.70;95.50;;;;;;6066074;23;20187;-87
2022/07/02 03:42:09;;;;;;;18.33;15.43;;;22.70;95.60;;;;;;6067252;23;20207;-87
2022/07/02 03:44:41;;;;;;;19.17;16.15;;;22.60;95.50;;;;;;6091309;23;20152;-87
2022/07/02 03:47:07;;;;;;;19.58;15.52;;;22.60;95.60;;;;;;6068526;23;20182;-87
2022/07/02 03:49:37;;;;;;;17.75;15.20;;;22.60;95.50;;;;;;6055986;23;20157;-88
2022/07/02 03:52:09;;;;;;;18.42;15.65;;;22.60;95.50;;;;;;6033537;23;20160;-87
2022/07/02 03:54:37;;;;;;;18.00;15.25;;;22.60;95.50;;;;;;6011188;23;20160;-87
2022/07/02 03:57:04;;;;;;;18.17;15.43;;;22.60;95.50;;;;;;6033772;23;20227;-87
2022/07/02 03:59:47;;;;;;;16.45;14.20;;;22.60;95.40;;;;;;6034197;23;20158;-87
2022/07/02 04:02:22;;;;;;;18.30;14.65;;;22.60;95.50;;;;;;6056693;23;20671;-87
2022/07/02 04:04:51;;;;;;;16.80;14.15;;;22.60;95.40;;;;;;6043803;23;20162;-88
2022/07/02 04:07:21;;;;;;;16.48;14.25;;;22.60;95.40;;;;;;6115738;23;20188;-87
2022/07/02 04:09:50;;;;;;;18.48;14.73;;;22.60;95.30;;;;;;6090440;23;20203;-88
2022/07/02 04:12:17;;;;;;;17.65;14.23;;;22.60;95.40;;;;;;6085943;23;20149;-88
2022/07/02 04:14:43;;;;;;;17.55;14.75;;;22.60;95.30;;;;;;6062837;23;20160;-89
2022/07/02 04:17:14;;;;;;;17.73;14.73;;;22.60;95.30;;;;;;6036043;23;20162;-87
2022/07/02 04:19:44;;;;;;;18.17;15.13;;;22.60;95.30;;;;;;6062166;23;20160;-87
2022/07/02 04:22:12;;;;;;;18.15;14.77;;;22.60;95.30;;;;;;6062164;23;20278;-87
2022/07/02 04:24:38;;;;;;;16.98;13.88;;;22.60;95.20;;;;;;6062492;23;20167;-88
2022/07/02 04:27:05;;;;;;;17.35;14.13;;;22.70;95.10;;;;;;6066448;23;20526;-91
2022/07/02 04:29:34;;;;;;;16.65;14.02;;;22.70;95.10;;;;;;6079320;23;20177;-89
2022/07/02 04:32:04;;;;;;;17.90;15.13;;;22.70;95.00;;;;;;5994683;24;20242;-88
2022/07/02 04:34:37;;;;;;;17.65;14.32;;;22.70;95.20;;;;;;5971383;24;20162;-88
2022/07/02 04:37:03;;;;;;;18.33;14.90;;;22.70;95.00;;;;;;5995387;23;20180;-88
2022/07/02 04:39:34;;;;;;;17.67;14.82;;;22.70;94.90;;;;;;5994600;23;20155;-87
2022/07/02 04:42:02;;;;;;;17.33;14.23;;;22.70;94.90;;;;;;5996128;24;20252;-88
2022/07/02 04:44:31;;;;;;;15.95;13.73;;;22.70;94.70;;;;;;5948677;24;20159;-90
2022/07/02 04:46:59;;;;;;;16.35;14.52;;;22.70;94.80;;;;;;5949549;24;20187;-87
2022/07/02 04:49:27;;;;;;;17.30;14.35;;;22.70;94.60;;;;;;5960650;24;20157;-88
2022/07/02 04:51:53;;;;;;;17.65;14.70;;;22.70;94.60;;;;;;5967638;24;20156;-87
2022/07/02 04:54:26;;;;;;;18.65;14.77;;;22.70;94.60;;;;;;5990263;24;20160;-88
2022/07/02 04:56:53;;;;;;;17.88;14.90;;;22.70;94.60;;;;;;5967940;24;20160;-89
2022/07/02 04:59:19;;;;;;;18.45;14.70;;;22.70;94.50;;;;;;5968607;23;20250;-87
2022/07/02 05:01:45;;;;;;;17.35;14.85;;;22.70;94.60;;;;;;5971582;24;20206;-88
2022/07/02 05:04:11;;;;;;;17.30;14.48;;;22.70;94.70;;;;;;6028727;23;20164;-87
2022/07/02 05:06:44;;;;;;;16.67;14.50;;;22.70;94.60;;;;;;6004832;23;20573;-87
2022/07/02 05:09:11;;;;;;;18.02;14.73;;;22.70;94.60;;;;;;6005174;23;20161;-87
2022/07/02 05:11:48;;;;;;;17.42;15.13;;;22.70;94.30;;;;;;6004699;23;20170;-87
2022/07/02 05:14:14;;;;;;;17.92;14.90;;;22.80;94.30;;;;;;6040345;23;20200;-87
2022/07/02 05:16:41;;;;;;;17.90;14.75;;;22.80;94.50;;;;;;5976991;23;20162;-88
2022/07/02 05:19:07;;;;;;;18.25;14.38;;;22.70;94.60;;;;;;6024552;23;20166;-87
2022/07/02 05:21:37;;;;;;;17.73;15.20;;;22.70;94.70;;;;;;5997270;23;20166;-89
2022/07/02 05:24:07;;;;;;;17.23;14.70;;;22.70;94.80;;;;;;6022404;23;20258;-87
2022/07/02 05:26:38;;;;;;;17.38;14.32;;;22.70;94.80;;;;;;5995338;24;20207;-89
2022/07/02 05:29:23;;;;;;;17.58;14.75;;;22.70;94.80;;;;;;5972495;24;20221;-88
2022/07/02 05:31:54;;;;;;;17.95;14.77;;;22.70;94.90;;;;;;5973451;23;20179;-90
2022/07/02 05:34:20;;;;;;;17.25;14.85;;;22.60;94.90;;;;;;5992100;24;20516;-91
2022/07/02 05:36:48;;;;;;;17.63;14.93;;;22.70;94.90;;;;;;5987529;24;20162;-91
2022/07/02 05:39:18;;;;;;;17.63;14.63;;;22.70;94.80;;;;;;6039946;23;20154;-90
2022/07/02 05:41:48;;;;;;;18.75;15.15;;;22.70;94.60;;;;;;5995422;23;20166;-89
2022/07/02 05:44:16;;;;;;;17.35;14.27;;;22.70;94.70;;;;;;5994647;23;20159;-89
2022/07/02 05:46:45;;;;;;;18.25;15.02;;;22.70;94.90;;;;;;5994615;23;20242;-89
2022/07/02 05:49:14;;;;;;;17.52;14.85;;;22.60;94.90;;;;;;5961795;24;20183;-89
2022/07/02 05:51:46;;;;;;;18.27;14.55;;;22.60;94.90;;;;;;5934591;24;20343;-90
2022/07/02 05:54:17;;;;;;;17.83;14.75;;;22.70;94.70;;;;;;5915324;24;20653;-89
2022/07/02 05:56:51;;;;;;;18.55;14.38;;;22.70;94.70;;;;;;5905694;24;20166;-88
2022/07/02 05:59:21;;;;;;;16.30;14.50;;;22.70;94.70;;;;;;5887670;24;20164;-89
2022/07/02 06:01:50;;;;;;;18.25;15.20;;;22.70;94.80;;;;;;5909027;24;20205;-88
2022/07/02 06:04:20;;;;;;;18.60;15.75;;;22.60;94.80;;;;;;5913633;24;20213;-88
2022/07/02 06:09:33;;;;;;;18.80;15.07;;;22.70;94.70;;;;;;5959942;24;20239;-91
2022/07/02 06:12:00;;;;;;;18.15;14.15;;;22.60;94.80;;;;;;5933098;24;20543;-89
2022/07/02 06:14:26;;;;;;;17.15;14.40;;;22.60;95.40;;;;;;5901988;24;20709;-88
2022/07/02 06:16:54;;;;;;;19.38;14.80;;;22.60;94.90;;;;;;5903796;24;20162;-88
2022/07/02 06:19:20;;;;;;;17.98;15.00;;;22.60;94.90;;;;;;5918913;24;20160;-88
2022/07/02 06:21:48;;;;;;;16.63;14.02;;;22.60;94.80;;;;;;5967565;24;20683;-87
2022/07/02 06:24:13;;;;;;;18.90;15.18;;;22.60;95.00;;;;;;5966075;24;20270;-88
2022/07/02 06:26:40;;;;;;;17.52;14.73;;;22.60;95.20;;;;;;5964390;24;20278;-88
2022/07/02 06:29:06;;;;;;;18.48;15.02;;;22.60;95.00;;;;;;5964513;24;20164;-89
2022/07/02 06:31:32;;;;;;;18.00;14.52;;;22.50;95.30;;;;;;5982864;24;20666;-89
2022/07/02 06:34:00;;;;;;;18.52;15.07;;;22.60;95.10;;;;;;5992188;24;20158;-87
2022/07/02 06:36:37;;;;;;;20.05;15.90;;;22.50;94.90;;;;;;5968291;24;20170;-88
2022/07/02 06:39:05;;;;;;;18.65;15.85;;;22.60;95.00;;;;;;6027331;23;20142;-89
2022/07/02 06:42:47;;;;;;;18.35;15.23;;;22.60;95.00;;;;;;6002667;23;20158;-87
2022/07/02 06:44:17;;;;;;;19.88;15.63;;;22.50;95.10;;;;;;6059517;23;20153;-87
2022/07/02 06:46:43;;;;;;;19.42;15.38;;;22.50;95.40;;;;;;6087000;23;20180;-90
2022/07/02 06:49:12;;;;;;;17.55;14.63;;;22.50;95.40;;;;;;6064011;23;20140;-88
2022/07/02 06:51:41;;;;;;;19.73;15.82;;;22.50;95.40;;;;;;6086832;23;20136;-87
2022/07/02 06:54:06;;;;;;;19.35;15.25;;;22.50;95.30;;;;;;6115562;23;20302;-89
2022/07/02 06:56:36;;;;;;;19.45;14.68;;;22.60;95.30;;;;;;6116237;23;20147;-88
2022/07/02 06:59:03;;;;;;;17.60;14.73;;;22.60;94.90;;;;;;6118531;23;20148;-90
2022/07/02 07:01:30;;;;;;;19.30;15.15;;;22.70;94.70;;;;;;6117132;23;20210;-89
2022/07/02 07:04:00;;;;;;;19.98;15.63;;;22.60;94.80;;;;;;6140177;23;20225;-89
2022/07/02 07:06:38;;;;;;;18.85;15.40;;;22.60;94.70;;;;;;6138576;23;20169;-91
2022/07/02 07:09:04;;;;;;;18.23;14.98;;;22.70;94.60;;;;;;6119191;23;20147;-87
2022/07/02 07:11:35;;;;;;;20.63;15.25;;;22.70;94.70;;;;;;6114284;23;20135;-89
2022/07/02 07:14:01;;;;;;;18.70;14.90;;;22.70;94.70;;;;;;6115206;23;20568;-89
2022/07/02 07:16:27;;;;;;;17.80;13.82;;;22.60;94.80;;;;;;6138983;23;20159;-89
2022/07/02 07:19:04;;;;;;;19.23;15.35;;;22.70;94.70;;;;;;6112206;23;20270;-89
2022/07/02 07:21:32;;;;;;;18.20;14.70;;;22.80;94.50;;;;;;6114651;23;20175;-88
2022/07/02 07:23:58;;;;;;;17.30;13.98;;;22.70;94.40;;;;;;6114056;23;20155;-89
2022/07/02 07:26:27;;;;;;;20.52;14.50;;;22.80;94.20;;;;;;6114453;23;20175;-90
2022/07/02 07:28:56;;;;;;;19.13;14.15;;;22.80;94.50;;;;;;6138697;23;20136;-89
2022/07/02 07:31:23;;;;;;;17.40;14.32;;;22.90;94.00;;;;;;6115677;23;20159;-88
2022/07/02 07:33:49;;;;;;;19.42;15.23;;;22.90;93.80;;;;;;6140525;23;20142;-88
2022/07/02 07:36:21;;;;;;;16.70;14.30;;;22.90;94.00;;;;;;6115846;23;20160;-87
2022/07/02 07:38:49;;;;;;;18.25;14.80;;;22.90;94.00;;;;;;6116052;23;20151;-89
2022/07/02 07:41:17;;;;;;;16.50;14.38;;;22.90;93.90;;;;;;6114154;23;20325;-91
2022/07/02 07:43:43;;;;;;;19.10;15.38;;;23.00;93.50;;;;;;6113527;23;20163;-88
2022/07/02 07:46:12;;;;;;;16.40;13.40;;;22.90;93.70;;;;;;6114052;23;20689;-88
2022/07/02 07:48:38;;;;;;;18.83;15.40;;;23.00;93.80;;;;;;6139548;23;20132;-90
2022/07/02 07:51:05;;;;;;;17.65;13.95;;;23.00;93.40;;;;;;6118167;23;20448;-88
2022/07/02 07:53:32;;;;;;;17.25;14.30;;;23.00;93.10;;;;;;6115070;23;20162;-88
2022/07/02 07:55:58;;;;;;;20.00;15.40;;;23.10;93.10;;;;;;6116880;23;20139;-89
2022/07/02 07:58:27;;;;;;;18.17;14.98;;;23.10;93.00;;;;;;6116886;23;20167;-87
2022/07/02 08:00:52;;;;;;;19.52;15.30;;;23.00;93.10;;;;;;6113676;23;20205;-89
2022/07/02 08:03:21;;;;;;;18.20;14.88;;;23.00;93.10;;;;;;6111815;23;20148;-88
2022/07/02 08:05:47;;;;;;;18.02;15.05;;;23.00;93.10;;;;;;6133088;23;20156;-89
2022/07/02 08:08:31;;;;;;;19.05;15.27;;;23.00;92.90;;;;;;6107327;23;20415;-89
2022/07/02 08:11:10;;;;;;;;;;;;;;;;;;;;;
2022/07/02 08:13:40;;;;;;;19.92;14.68;;;23.00;92.80;;;;;;6053951;23;20187;-90
2022/07/02 08:16:08;;;;;;;17.58;14.10;;;23.00;92.80;;;;;;6026161;23;20149;-90
2022/07/02 08:18:40;;;;;;;18.50;15.45;;;23.00;92.70;;;;;;6025053;23;20573;-90
2022/07/02 08:21:41;;;;;;;20.10;16.00;;;23.00;93.00;;;;;;6026584;23;20185;-88
2022/07/02 08:24:11;;;;;;;17.35;14.98;;;23.00;93.20;;;;;;6028266;23;20157;-88
2022/07/02 08:26:39;;;;;;;17.63;14.02;;;22.90;93.20;;;;;;6019042;23;20213;-88
2022/07/02 08:29:31;;;;;;;19.48;14.88;;;23.00;93.10;;;;;;5991689;23;20207;-89
2022/07/02 08:32:03;;;;;;;17.38;15.05;;;23.00;92.70;;;;;;6014867;23;20181;-90
2022/07/02 08:34:44;;;;;;;17.60;15.15;;;23.00;92.70;;;;;;5967347;23;20207;-93
2022/07/02 08:37:10;;;;;;;17.92;15.02;;;23.00;92.60;;;;;;5977811;23;20155;-88
2022/07/02 08:39:41;;;;;;;18.83;14.38;;;23.10;92.40;;;;;;6023912;23;20154;-90
2022/07/02 08:42:09;;;;;;;20.35;16.13;;;23.10;92.10;;;;;;6020213;23;20209;-91
2022/07/02 08:44:41;;;;;;;18.77;15.93;;;23.20;91.90;;;;;;5997713;23;20505;-90
2022/07/02 08:47:23;;;;;;;19.73;16.52;;;23.10;92.00;;;;;;6052900;23;20188;-90
2022/07/02 08:50:07;;;;;;;19.75;15.68;;;23.10;92.20;;;;;;6021899;23;20157;-89
2022/07/02 08:52:54;;;;;;;;;;;;;;;;;;;;;
2022/07/02 08:59:28;;;;;;;17.60;13.90;;;23.10;91.60;;;;;;5950178;24;20219;-91
2022/07/02 09:02:28;;;;;;;;;;;;;;;;;;;;;
2022/07/02 09:09:52;;;;;;;11.98;10.38;;;23.30;90.20;;;;;;5827315;24;20617;-92
2022/07/02 09:12:23;;;;;;;;;;;;;;;;;;;;;
2022/07/02 09:15:12;;;;;;;;;;;;;;;;;;;;;
2022/07/02 09:17:45;;;;;;;8.90;8.00;;;23.20;87.80;;;;;;5800529;24;20192;-91
2022/07/02 09:20:24;;;;;;;9.25;7.82;;;23.30;87.80;;;;;;5772993;24;20196;-92
2022/07/02 09:22:59;;;;;;;10.05;8.75;;;23.30;88.00;;;;;;5784937;24;20250;-89
2022/07/02 09:25:54;;;;;;;11.38;9.40;;;23.30;88.00;;;;;;5778661;24;20164;-85
2022/07/02 09:29:02;;;;;;;8.93;6.97;;;23.30;87.30;;;;;;5783432;24;20173;-86
2022/07/02 09:32:09;;;;;;;7.95;7.15;;;23.40;86.90;;;;;;5782901;24;20171;-89
2022/07/02 09:34:56;;;;;;;8.43;6.78;;;23.40;86.10;;;;;;5836683;24;20147;-88
2022/07/02 09:37:43;;;;;;;;;;;;;;;;;;;;;
2022/07/02 09:40:20;;;;;;;6.50;5.82;;;23.40;84.80;;;;;;5926909;24;20167;-86
2022/07/02 09:43:08;;;;;;;6.13;5.43;;;23.40;84.40;;;;;;5853763;24;20174;-87
2022/07/02 09:45:40;;;;;;;5.80;4.47;;;23.40;83.10;;;;;;5821127;24;20160;-87
2022/07/02 09:48:06;;;;;;;6.70;5.68;;;23.40;82.40;;;;;;5840280;24;20191;-90
2022/07/02 09:51:14;;;;;;;6.30;5.28;;;23.40;82.40;;;;;;5856764;24;20580;-88
2022/07/02 09:57:21;;;;;;;;;;;;;;;;;;;;;
2022/07/02 10:58:50;;;;;;;4.55;3.58;;;23.40;75.60;;;;;;6170348;23;20205;-90
2022/07/02 11:01:21;;;;;;;2.90;2.53;;;23.40;75.40;;;;;;6131951;23;20178;-88
2022/07/02 11:04:00;;;;;;;2.92;2.72;;;23.40;73.90;;;;;;6083449;23;20176;-90
2022/07/02 11:06:33;;;;;;;3.80;2.40;;;23.40;73.00;;;;;;6078804;23;20179;-87
2022/07/02 11:09:14;;;;;;;2.50;2.30;;;23.30;72.70;;;;;;6083188;23;20159;-87
2022/07/02 11:11:48;;;;;;;2.47;2.28;;;23.30;72.50;;;;;;6082546;23;20149;-89
2022/07/02 11:14:26;;;;;;;3.55;2.50;;;23.20;72.70;;;;;;6080139;23;20156;-88
2022/07/02 11:16:53;;;;;;;2.53;2.33;;;23.20;72.70;;;;;;6081514;23;20132;-89
2022/07/02 11:19:27;;;;;;;2.95;2.53;;;23.20;72.70;;;;;;6054070;23;20264;-89
2022/07/02 11:22:22;;;;;;;2.75;2.55;;;23.20;72.40;;;;;;6103087;23;20148;-89
2022/07/02 11:24:53;;;;;;;2.47;2.28;;;23.20;72.50;;;;;;6078210;23;20152;-89
2022/07/02 11:27:18;;;;;;;2.38;2.05;;;23.10;72.50;;;;;;6100122;23;20173;-89
2022/07/02 11:29:53;;;;;;;5.30;3.17;;;23.10;72.10;;;;;;6052121;23;20593;-90
2022/07/02 11:32:19;;;;;;;3.15;2.78;;;23.20;72.30;;;;;;6050317;23;20475;-87
2022/07/02 11:34:45;;;;;;;3.28;2.70;;;23.10;71.40;;;;;;6110100;23;20178;-89
2022/07/02 11:37:26;;;;;;;3.20;2.58;;;23.20;70.90;;;;;;6138398;23;20142;-87
2022/07/02 11:39:52;;;;;;;3.25;2.35;;;23.10;70.30;;;;;;6137574;23;20226;-90
2022/07/02 11:42:20;;;;;;;2.70;2.05;;;23.20;70.00;;;;;;6138764;23;20141;-89
2022/07/02 11:44:46;;;;;;;1.80;1.70;;;23.30;70.00;;;;;;6116016;23;20206;-89
2022/07/02 11:47:12;;;;;;;2.17;1.98;;;23.30;69.70;;;;;;6139062;23;20162;-87
2022/07/02 11:49:38;;;;;;;3.65;2.10;;;23.30;69.60;;;;;;6115353;23;20149;-87
2022/07/02 11:52:06;;;;;;;5.80;1.98;;;23.30;69.50;;;;;;6115867;23;20238;-90
2022/07/02 11:54:33;;;;;;;3.22;2.00;;;23.30;68.90;;;;;;6115883;23;20154;-89
2022/07/02 11:56:59;;;;;;;2.30;2.10;;;23.30;68.90;;;;;;6166208;23;20146;-89
2022/07/02 11:59:25;;;;;;;2.50;2.20;;;23.30;69.20;;;;;;6135601;23;20186;-89
2022/07/02 12:01:53;;;;;;;5.00;2.20;;;23.40;68.70;;;;;;6114376;23;20139;-89
2022/07/02 12:04:42;;;;;;;2.30;2.10;;;23.40;68.80;;;;;;6112032;23;20170;-89
2022/07/02 12:07:12;;;;;;;2.38;1.73;;;23.40;68.60;;;;;;6109913;23;20183;-88
2022/07/02 12:09:40;;;;;;;2.78;1.98;;;23.40;67.80;;;;;;6132148;23;20241;-89
2022/07/02 12:12:07;;;;;;;2.13;1.75;;;23.40;67.70;;;;;;6109576;23;20148;-90
2022/07/02 12:14:33;;;;;;;1.77;1.67;;;23.40;67.40;;;;;;6107813;23;20147;-89
2022/07/02 12:17:00;;;;;;;3.42;2.08;;;23.40;67.30;;;;;;6131554;23;20278;-88
2022/07/02 12:19:29;;;;;;;2.13;1.55;;;23.40;67.00;;;;;;6106733;23;20159;-90
2022/07/02 12:21:55;;;;;;;1.58;1.40;;;23.40;66.60;;;;;;6107365;23;20162;-90
2022/07/02 12:24:25;;;;;;;2.08;1.60;;;23.40;66.50;;;;;;6107186;23;20193;-88
2022/07/02 12:26:56;;;;;;;1.83;1.50;;;23.40;66.10;;;;;;6106955;23;20231;-88
2022/07/02 12:30:04;;;;;;;2.38;1.90;;;23.30;66.00;;;;;;6132096;23;20160;-88
2022/07/02 12:32:16;;;;;;;2.08;1.55;;;23.30;66.20;;;;;;6136757;23;20156;-87
2022/07/02 12:34:52;;;;;;;1.95;1.85;;;23.20;66.20;;;;;;6132376;23;20139;-88
2022/07/02 12:37:33;;;;;;;1.77;1.67;;;23.20;66.60;;;;;;6156958;23;20143;-87
2022/07/02 12:40:12;;;;;;;1.83;1.73;;;23.20;66.70;;;;;;6109681;23;20148;-89
2022/07/02 12:42:47;;;;;;;3.67;1.35;;;23.10;66.70;;;;;;6104993;23;20588;-89
2022/07/02 12:45:25;;;;;;;3.80;1.60;;;23.10;66.60;;;;;;6107216;23;20150;-90
2022/07/02 12:47:59;;;;;;;1.60;1.50;;;23.10;66.80;;;;;;6107123;23;20613;-90
2022/07/02 12:50:26;;;;;;;2.00;1.80;;;23.10;66.80;;;;;;6105973;23;20147;-88
2022/07/02 12:52:53;;;;;;;1.88;1.70;;;23.10;66.80;;;;;;6130578;23;20147;-88
2022/07/02 12:55:26;;;;;;;2.00;1.80;;;23.00;66.70;;;;;;6106364;23;20543;-88
2022/07/02 12:57:52;;;;;;;2.05;1.80;;;23.00;66.30;;;;;;6107792;23;20635;-89
2022/07/02 13:00:18;;;;;;;1.98;1.60;;;23.00;66.20;;;;;;6111546;23;20260;-89
2022/07/02 13:02:46;;;;;;;4.55;1.90;;;23.00;66.10;;;;;;6132349;23;20574;-90
2022/07/02 13:05:13;;;;;;;1.95;1.85;;;22.90;66.00;;;;;;6132572;23;20136;-89
2022/07/02 13:07:38;;;;;;;2.38;1.90;;;22.90;66.30;;;;;;6132770;23;20168;-88
2022/07/02 13:10:06;;;;;;;2.53;1.85;;;22.90;66.20;;;;;;6135331;23;20202;-88
2022/07/02 13:16:13;;;;;;;2.03;1.90;;;22.90;65.90;;;;;;6165006;23;20139;-88
2022/07/02 13:19:08;;;;;;;2.47;2.03;;;22.90;65.90;;;;;;6164959;23;20485;-88
2022/07/02 13:25:22;;;;;;;2.42;2.10;;;22.80;65.60;;;;;;6028375;23;20229;-89
2022/07/02 13:28:42;;;;;;;;;;;;;;;;;;;;;
2022/07/02 13:55:59;;;;;;;4.68;2.38;;;23.00;62.90;;;;;;5992724;23;20145;-91
2022/07/02 13:58:33;;;;;;;3.33;2.28;;;23.00;62.70;;;;;;6047977;23;20268;-88
2022/07/02 14:01:13;;;;;;;;;;;;;;;;;;;;;
2022/07/02 14:04:25;;;;;;;3.47;2.25;;;23.10;61.90;;;;;;5902432;24;20189;-88
2022/07/02 14:06:53;;;;;;;4.50;2.30;;;23.10;62.50;;;;;;5911552;24;20231;-88
2022/07/02 14:09:36;;;;;;;;;;;;;;;;;;;;;
2022/07/02 14:12:10;;;;;;;2.58;2.30;;;23.10;60.90;;;;;;5911096;24;20172;-87
2022/07/02 14:14:47;;;;;;;2.88;2.45;;;23.10;61.30;;;;;;5909275;24;20153;-87
2022/07/02 14:18:10;;;;;;;3.10;2.22;;;23.20;59.80;;;;;;5805597;24;20191;-90
2022/07/02 14:20:41;;;;;;;2.90;2.22;;;23.20;59.70;;;;;;5850430;24;20604;-88
2022/07/02 14:23:09;;;;;;;4.50;2.40;;;23.20;59.20;;;;;;5806708;24;20190;-90
2022/07/02 14:25:51;;;;;;;5.15;2.60;;;23.20;59.00;;;;;;5803598;24;20182;-91
2022/07/02 14:28:19;;;;;;;4.55;2.67;;;23.20;58.80;;;;;;5824768;24;20194;-89
2022/07/02 14:30:59;;;;;;;3.13;2.67;;;23.30;58.90;;;;;;5802784;24;20163;-90
2022/07/02 14:33:34;;;;;;;2.80;2.40;;;23.30;58.60;;;;;;5829263;24;20261;-89
2022/07/02 14:36:02;;;;;;;6.80;2.30;;;23.30;58.40;;;;;;5863458;24;20191;-90
2022/07/02 14:38:34;;;;;;;2.63;2.08;;;23.20;58.00;;;;;;5928370;24;20689;-88
2022/07/02 14:43:47;;;;;;;3.35;2.15;;;23.30;57.60;;;;;;5890414;24;20157;-87
2022/07/02 14:49:21;;;;;;;2.92;2.08;;;23.20;57.30;;;;;;5936599;24;20564;-87
2022/07/02 14:51:49;;;;;;;2.80;2.05;;;23.20;57.30;;;;;;5974878;23;20185;-91
2022/07/02 14:54:34;;;;;;;2.55;2.30;;;23.20;57.20;;;;;;6021247;23;20161;-89
2022/07/02 14:57:07;;;;;;;4.18;2.20;;;23.20;57.40;;;;;;5997886;23;20150;-90
2022/07/02 14:59:34;;;;;;;4.70;2.15;;;23.20;57.60;;;;;;6008132;23;20189;-87
2022/07/02 15:01:59;;;;;;;2.83;2.30;;;23.20;57.40;;;;;;6029846;23;20497;-89
2022/07/02 15:04:27;;;;;;;2.42;2.15;;;23.20;57.60;;;;;;6111922;23;20159;-89